createdAt,value
2023-03-07T00:00:08.911Z,4.56
2023-03-07T00:02:38.823Z,4.54
2023-03-07T00:05:08.888Z,4.52
2023-03-07T00:07:37.141Z,4.53
2023-03-07T00:10:04.118Z,4.61
2023-03-07T00:12:31.056Z,4.64
2023-03-07T00:14:57.542Z,4.57
2023-03-07T00:17:23.999Z,4.67
2023-03-07T00:19:50.498Z,4.73
2023-03-07T00:22:17.010Z,4.63
2023-03-07T00:24:43.509Z,4.56
2023-03-07T00:27:10.324Z,4.37
2023-03-07T00:29:39.847Z,4.36
2023-03-07T00:32:09.203Z,4.41
2023-03-07T00:34:36.713Z,4.34
2023-03-07T00:37:03.217Z,4.33
2023-03-07T00:39:29.671Z,4.28
2023-03-07T00:41:56.135Z,4.27
2023-03-07T00:44:22.625Z,4.21
2023-03-07T00:46:49.102Z,4.41
2023-03-07T00:49:15.525Z,4.44
2023-03-07T00:51:41.944Z,4.31
2023-03-07T00:54:11.926Z,4.15
2023-03-07T00:56:41.650Z,4.13
2023-03-07T00:59:11.551Z,4.10
2023-03-07T01:01:41.715Z,4.02
2023-03-07T01:04:10.966Z,4.13
2023-03-07T01:06:38.182Z,4.16
2023-03-07T01:09:08.373Z,4.22
2023-03-07T01:11:36.976Z,4.23
2023-03-07T01:14:05.870Z,4.26
2023-03-07T01:16:34.352Z,4.18
2023-03-07T01:19:04.615Z,4.25
2023-03-07T01:21:34.049Z,4.24
2023-03-07T01:24:01.003Z,4.26
2023-03-07T01:26:30.198Z,4.29
2023-03-07T01:28:58.902Z,4.27
2023-03-07T01:31:26.210Z,4.31
2023-03-07T01:33:53.799Z,4.26
2023-03-07T01:36:21.660Z,4.33
2023-03-07T01:38:49.261Z,4.42
2023-03-07T01:41:16.815Z,4.16
2023-03-07T01:43:43.464Z,4.10
2023-03-07T01:46:18.873Z,4.13
2023-03-07T01:48:48.853Z,4.01
2023-03-07T01:51:15.510Z,3.82
2023-03-07T01:53:45.962Z,3.85
2023-03-07T01:56:13.145Z,3.85
2023-03-07T01:58:42.051Z,3.91
2023-03-07T02:01:15.388Z,4.12
2023-03-07T02:04:15.120Z,4.21
2023-03-07T02:06:46.018Z,4.17
2023-03-07T02:09:18.567Z,4.13
2023-03-07T02:11:46.110Z,4.03
2023-03-07T02:14:13.714Z,3.91
2023-03-07T02:16:41.031Z,3.93
2023-03-07T02:19:30.358Z,3.81
2023-03-07T02:22:09.717Z,3.87
2023-03-07T02:25:15.350Z,3.82
2023-03-07T02:27:45.107Z,3.93
2023-03-07T02:30:12.342Z,3.87
2023-03-07T02:32:38.945Z,3.96
2023-03-07T02:35:19.677Z,3.95
2023-03-07T02:37:49.709Z,3.89
2023-03-07T02:40:19.596Z,3.88
2023-03-07T02:42:47.282Z,3.84
2023-03-07T02:45:19.065Z,3.98
2023-03-07T02:47:46.075Z,4.13
2023-03-07T02:50:17.548Z,4.12
2023-03-07T02:52:47.800Z,4.14
2023-03-07T02:55:17.203Z,3.98
2023-03-07T02:57:46.199Z,3.82
2023-03-07T03:00:15.370Z,3.64
2023-03-07T03:02:41.850Z,3.52
2023-03-07T03:05:09.192Z,3.58
2023-03-07T03:07:35.697Z,3.86
2023-03-07T03:10:02.574Z,3.64
2023-03-07T03:12:29.103Z,3.34
2023-03-07T03:14:55.556Z,3.21
2023-03-07T03:17:22.119Z,3.19
2023-03-07T03:19:48.623Z,2.94
2023-03-07T03:22:20.440Z,3.06
2023-03-07T03:24:49.709Z,3.18
2023-03-07T03:27:20.128Z,2.97
2023-03-07T03:29:47.299Z,3.05
2023-03-07T03:32:13.782Z,2.70
2023-03-07T03:34:40.630Z,2.98
2023-03-07T03:37:07.862Z,2.92
2023-03-07T03:39:34.304Z,2.87
2023-03-07T03:42:00.971Z,2.83
2023-03-07T03:44:27.481Z,2.92
2023-03-07T03:46:55.729Z,2.71
2023-03-07T03:49:22.309Z,2.67
2023-03-07T03:51:49.431Z,2.41
2023-03-07T03:54:18.408Z,2.54
2023-03-07T03:56:45.233Z,2.49
2023-03-07T03:59:11.867Z,2.26
2023-03-07T04:01:38.423Z,2.10
2023-03-07T04:04:05.016Z,2.17
2023-03-07T04:06:34.072Z,2.20
2023-03-07T04:09:00.994Z,2.17
2023-03-07T04:11:27.535Z,2.03
2023-03-07T04:13:54.254Z,1.98
2023-03-07T04:16:22.473Z,1.91
2023-03-07T04:18:52.405Z,1.99
2023-03-07T04:21:22.595Z,2.22
2023-03-07T04:23:55.353Z,2.05
2023-03-07T04:26:22.268Z,2.00
2023-03-07T04:28:51.597Z,1.96
2023-03-07T04:31:23.282Z,2.07
2023-03-07T04:33:56.045Z,2.36
2023-03-07T04:36:23.805Z,2.33
2023-03-07T04:38:53.991Z,2.34
2023-03-07T04:41:26.622Z,2.53
2023-03-07T04:43:53.258Z,2.55
2023-03-07T04:46:20.927Z,2.61
2023-03-07T04:48:47.629Z,2.55
2023-03-07T04:51:14.674Z,2.51
2023-03-07T04:53:41.162Z,2.58
2023-03-07T04:56:09.161Z,2.56
2023-03-07T04:58:36.504Z,2.68
2023-03-07T05:01:04.129Z,2.76
2023-03-07T05:03:30.635Z,2.69
2023-03-07T05:06:02.882Z,2.67
2023-03-07T05:08:29.810Z,2.53
2023-03-07T05:10:56.632Z,2.56
2023-03-07T05:13:25.966Z,2.55
2023-03-07T05:15:57.412Z,2.62
2023-03-07T05:18:24.772Z,2.57
2023-03-07T05:20:54.510Z,2.69
2023-03-07T05:23:25.148Z,2.65
2023-03-07T05:25:53.757Z,2.73
2023-03-07T05:28:20.278Z,2.72
2023-03-07T05:30:47.737Z,2.61
2023-03-07T05:33:15.103Z,2.39
2023-03-07T05:35:41.734Z,2.34
2023-03-07T05:38:08.255Z,2.41
2023-03-07T05:40:34.973Z,2.43
2023-03-07T05:43:01.715Z,2.39
2023-03-07T05:45:28.250Z,2.35
2023-03-07T05:47:54.806Z,2.28
2023-03-07T05:50:23.678Z,2.36
2023-03-07T05:52:50.165Z,2.19
2023-03-07T05:55:16.708Z,2.09
2023-03-07T05:57:43.226Z,2.07
2023-03-07T06:00:11.335Z,1.93
2023-03-07T06:02:37.786Z,1.92
2023-03-07T06:05:04.520Z,1.64
2023-03-07T06:07:30.986Z,1.64
2023-03-07T06:09:57.558Z,1.36
2023-03-07T06:12:27.189Z,1.13
2023-03-07T06:14:56.691Z,0.87
2023-03-07T06:17:26.197Z,0.72
2023-03-07T06:19:55.598Z,0.77
2023-03-07T06:22:24.445Z,0.49
2023-03-07T06:24:50.976Z,0.48
2023-03-07T06:27:17.586Z,0.38
2023-03-07T06:29:44.093Z,0.54
2023-03-07T06:32:10.622Z,0.42
2023-03-07T06:34:37.380Z,0.49
2023-03-07T06:37:03.949Z,0.53
2023-03-07T06:39:31.495Z,0.54
2023-03-07T06:41:58.419Z,0.72
2023-03-07T06:44:25.270Z,0.86
2023-03-07T06:46:54.311Z,0.99
2023-03-07T06:49:21.061Z,1.00
2023-03-07T06:51:47.940Z,1.18
2023-03-07T06:54:14.799Z,1.31
2023-03-07T06:56:43.587Z,1.18
2023-03-07T06:59:12.148Z,1.28
2023-03-07T07:01:38.992Z,1.31
2023-03-07T07:04:05.864Z,1.28
2023-03-07T07:06:32.808Z,1.46
2023-03-07T07:09:00.107Z,1.59
2023-03-07T07:11:27.302Z,1.69
2023-03-07T07:13:56.925Z,1.85
2023-03-07T07:16:27.090Z,1.87
2023-03-07T07:18:54.384Z,2.02
2023-03-07T07:21:21.683Z,2.04
2023-03-07T07:23:48.225Z,2.28
2023-03-07T07:26:14.700Z,2.15
2023-03-07T07:28:41.178Z,2.06
2023-03-07T07:31:07.709Z,1.75
2023-03-07T07:33:34.408Z,1.90
2023-03-07T07:36:01.027Z,1.66
2023-03-07T07:38:27.685Z,1.59
2023-03-07T07:40:56.329Z,1.90
2023-03-07T07:43:22.854Z,2.03
2023-03-07T07:45:49.295Z,1.99
2023-03-07T07:48:16.453Z,2.21
2023-03-07T07:50:45.408Z,2.20
2023-03-07T07:53:11.931Z,2.38
2023-03-07T07:55:38.476Z,2.38
2023-03-07T07:58:05.588Z,2.35
2023-03-07T08:00:32.372Z,2.64
2023-03-07T08:02:59.304Z,2.88
2023-03-07T08:05:28.793Z,2.84
2023-03-07T08:08:04.741Z,2.92
2023-03-07T08:10:31.234Z,3.12
2023-03-07T08:13:00.795Z,2.79
2023-03-07T08:15:27.267Z,2.83
2023-03-07T08:17:55.978Z,2.85
2023-03-07T08:20:23.570Z,2.99
2023-03-07T08:22:52.840Z,3.15
2023-03-07T08:25:24.284Z,3.09
2023-03-07T08:27:59.013Z,2.94
2023-03-07T08:30:30.205Z,3.07
2023-03-07T08:32:57.465Z,3.18
2023-03-07T08:35:28.458Z,3.40
2023-03-07T08:38:00.512Z,3.43
2023-03-07T08:40:30.770Z,3.65
2023-03-07T08:42:59.340Z,3.76
2023-03-07T08:45:28.599Z,3.88
2023-03-07T08:47:58.484Z,3.85
2023-03-07T08:50:28.743Z,3.76
2023-03-07T08:52:57.623Z,3.61
2023-03-07T08:55:26.566Z,3.73
2023-03-07T08:57:53.038Z,3.64
2023-03-07T09:00:19.826Z,3.56
2023-03-07T09:02:46.322Z,3.63
2023-03-07T09:05:12.822Z,3.76
2023-03-07T09:07:39.381Z,3.66
2023-03-07T09:10:06.501Z,3.59
2023-03-07T09:12:34.189Z,3.64
2023-03-07T09:15:00.820Z,3.62
2023-03-07T09:17:27.326Z,3.86
2023-03-07T09:19:55.929Z,4.03
2023-03-07T09:22:22.356Z,3.82
2023-03-07T09:24:48.818Z,3.67
2023-03-07T09:27:15.322Z,3.67
2023-03-07T09:29:41.848Z,3.63
2023-03-07T09:32:08.373Z,3.60
2023-03-07T09:34:34.914Z,3.50
2023-03-07T09:37:01.381Z,3.54
2023-03-07T09:39:27.951Z,3.98
2023-03-07T09:41:56.907Z,4.17
2023-03-07T09:44:35.195Z,4.35
2023-03-07T09:47:41.307Z,4.22
2023-03-07T09:50:26.692Z,4.13
2023-03-07T09:52:57.797Z,4.29
2023-03-07T09:55:28.529Z,4.22
2023-03-07T09:58:03.948Z,4.09
2023-03-07T10:00:46.035Z,4.20
2023-03-07T10:03:31.381Z,4.27
2023-03-07T10:06:07.564Z,4.37
2023-03-07T10:08:34.565Z,4.30
2023-03-07T10:11:16.809Z,4.44
2023-03-07T10:14:06.230Z,4.37
2023-03-07T10:16:56.546Z,4.10
2023-03-07T10:19:35.922Z,4.31
2023-03-07T10:22:45.152Z,4.30
2023-03-07T10:25:18.897Z,4.34
2023-03-07T10:27:48.236Z,4.35
2023-03-07T10:30:18.614Z,4.43
2023-03-07T10:32:53.762Z,4.50
2023-03-07T10:35:26.539Z,4.54
2023-03-07T10:38:05.347Z,4.63
2023-03-07T10:40:56.908Z,4.51
2023-03-07T10:43:34.314Z,4.59
2023-03-07T10:46:26.593Z,4.69
2023-03-07T10:49:01.495Z,4.88
2023-03-07T10:52:06.641Z,4.89
2023-03-07T10:54:37.435Z,4.66
2023-03-07T10:57:26.815Z,4.79
2023-03-07T10:59:53.500Z,4.62
2023-03-07T11:02:32.192Z,5.09
2023-03-07T11:04:59.139Z,5.06
2023-03-07T11:07:34.613Z,5.21
2023-03-07T11:10:12.625Z,5.11
2023-03-07T11:12:46.262Z,5.25
2023-03-07T11:15:25.066Z,5.15
2023-03-07T11:17:52.821Z,4.89
2023-03-07T11:20:26.283Z,5.21
2023-03-07T11:23:14.810Z,5.14
2023-03-07T11:25:41.369Z,5.14
2023-03-07T11:28:30.047Z,5.29
2023-03-07T11:31:55.882Z,5.44
2023-03-07T11:34:28.185Z,5.45
2023-03-07T11:37:15.097Z,5.58
2023-03-07T11:39:57.798Z,5.83
2023-03-07T11:42:31.764Z,5.93
2023-03-07T11:45:22.034Z,6.18
2023-03-07T11:48:01.138Z,6.18
2023-03-07T11:50:31.155Z,6.01
2023-03-07T11:53:03.897Z,6.04
2023-03-07T11:55:41.532Z,5.92
2023-03-07T11:58:30.373Z,5.86
2023-03-07T12:00:59.628Z,5.85
2023-03-07T12:04:01.681Z,5.97
2023-03-07T12:06:37.300Z,5.99
2023-03-07T12:09:26.287Z,6.11
2023-03-07T12:12:10.936Z,6.29
2023-03-07T12:15:00.697Z,6.34
2023-03-07T12:18:14.506Z,6.47
2023-03-07T12:21:02.250Z,6.36
2023-03-07T12:23:48.452Z,6.32
2023-03-07T12:26:28.792Z,6.32
2023-03-07T12:29:26.952Z,6.17
2023-03-07T12:32:00.660Z,6.12
2023-03-07T12:34:39.096Z,6.40
2023-03-07T12:37:18.642Z,6.41
2023-03-07T12:39:49.154Z,6.45
2023-03-07T12:42:33.938Z,6.48
2023-03-07T12:45:12.850Z,6.31
2023-03-07T12:47:53.609Z,6.59
2023-03-07T12:50:46.369Z,6.59
2023-03-07T12:53:47.163Z,6.77
2023-03-07T12:56:22.054Z,6.78
2023-03-07T12:58:58.307Z,6.74
2023-03-07T13:01:48.909Z,6.61
2023-03-07T13:04:38.531Z,6.67
2023-03-07T13:07:12.569Z,6.85
2023-03-07T13:09:45.912Z,6.70
2023-03-07T13:12:26.046Z,6.51
2023-03-07T13:15:04.757Z,6.37
2023-03-07T13:17:31.575Z,6.32
2023-03-07T13:20:01.001Z,6.21
2023-03-07T13:22:30.654Z,6.31
2023-03-07T13:25:20.074Z,6.34
2023-03-07T13:27:54.034Z,6.28
2023-03-07T13:30:30.184Z,6.20
2023-03-07T13:33:29.062Z,6.22
2023-03-07T13:36:00.547Z,6.63
2023-03-07T13:38:42.346Z,6.88
2023-03-07T13:41:11.259Z,6.91
2023-03-07T13:43:47.031Z,6.94
2023-03-07T13:46:54.401Z,6.48
2023-03-07T13:49:35.035Z,6.31
2023-03-07T13:52:22.865Z,6.30
2023-03-07T13:54:51.029Z,6.25
2023-03-07T13:57:27.265Z,6.38
2023-03-07T13:59:56.525Z,6.57
2023-03-07T14:02:23.631Z,6.60
2023-03-07T14:04:55.701Z,6.79
2023-03-07T14:07:36.608Z,6.84
2023-03-07T14:10:22.059Z,6.91
2023-03-07T14:13:21.892Z,7.26
2023-03-07T14:16:04.360Z,7.44
2023-03-07T14:18:40.233Z,7.47
2023-03-07T14:21:31.753Z,7.44
2023-03-07T14:24:10.433Z,7.68
2023-03-07T14:26:50.889Z,7.84
2023-03-07T14:29:22.882Z,7.85
2023-03-07T14:31:53.052Z,7.63
2023-03-07T14:34:19.552Z,7.62
2023-03-07T14:36:50.184Z,8.08
2023-03-07T14:39:17.947Z,8.49
2023-03-07T14:42:03.000Z,8.74
2023-03-07T14:45:06.081Z,8.58
2023-03-07T14:47:38.098Z,8.60
2023-03-07T14:50:12.706Z,8.56
2023-03-07T14:52:39.261Z,8.24
2023-03-07T14:55:07.160Z,8.34
2023-03-07T14:57:37.637Z,9.07
2023-03-07T15:00:07.361Z,9.43
2023-03-07T15:02:33.903Z,9.37
2023-03-07T15:05:02.492Z,8.92
2023-03-07T15:07:29.008Z,8.61
2023-03-07T15:09:55.565Z,8.56
2023-03-07T15:12:27.506Z,8.14
2023-03-07T15:15:04.367Z,7.95
2023-03-07T15:17:45.070Z,7.86
2023-03-07T15:20:22.917Z,7.74
2023-03-07T15:22:49.950Z,7.62
2023-03-07T15:25:25.541Z,7.72
2023-03-07T15:28:06.077Z,8.10
2023-03-07T15:30:35.373Z,8.29
2023-03-07T15:33:19.770Z,8.65
2023-03-07T15:36:06.830Z,8.94
2023-03-07T15:38:36.804Z,8.88
2023-03-07T15:41:36.295Z,9.07
2023-03-07T15:44:22.161Z,9.32
2023-03-07T15:46:51.844Z,9.25
2023-03-07T15:49:42.106Z,9.10
2023-03-07T15:52:20.078Z,8.79
2023-03-07T15:54:50.942Z,8.60
2023-03-07T15:57:22.415Z,8.49
2023-03-07T15:59:53.981Z,8.28
2023-03-07T16:02:37.826Z,8.41
2023-03-07T16:05:24.416Z,8.49
2023-03-07T16:07:53.190Z,8.56
2023-03-07T16:10:21.634Z,8.66
2023-03-07T16:12:49.128Z,8.39
2023-03-07T16:15:18.546Z,8.23
2023-03-07T16:17:46.943Z,8.13
2023-03-07T16:20:19.586Z,8.11
2023-03-07T16:22:49.553Z,7.89
2023-03-07T16:25:16.976Z,7.83
2023-03-07T16:27:53.332Z,7.64
2023-03-07T16:30:26.196Z,7.58
2023-03-07T16:32:52.945Z,7.46
2023-03-07T16:35:21.998Z,7.27
2023-03-07T16:37:48.649Z,7.02
2023-03-07T16:40:16.190Z,7.17
2023-03-07T16:42:45.782Z,7.17
2023-03-07T16:45:35.332Z,7.18
2023-03-07T16:48:03.349Z,7.06
2023-03-07T16:50:34.787Z,7.01
2023-03-07T16:53:03.786Z,7.05
2023-03-07T16:55:34.269Z,6.93
2023-03-07T16:58:05.811Z,6.90
2023-03-07T17:00:35.227Z,6.83
2023-03-07T17:03:04.977Z,6.82
2023-03-07T17:05:34.650Z,6.87
2023-03-07T17:08:04.907Z,6.62
2023-03-07T17:10:36.366Z,6.86
2023-03-07T17:13:08.323Z,6.73
2023-03-07T17:15:36.501Z,6.76
2023-03-07T17:18:03.701Z,6.70
2023-03-07T17:20:33.764Z,6.62
2023-03-07T17:23:02.578Z,6.50
2023-03-07T17:25:29.189Z,6.45
2023-03-07T17:28:09.042Z,6.13
2023-03-07T17:30:37.697Z,6.05
2023-03-07T17:33:04.426Z,6.14
2023-03-07T17:35:34.606Z,6.21
2023-03-07T17:38:03.969Z,6.24
2023-03-07T17:40:35.213Z,6.07
2023-03-07T17:43:03.821Z,6.10
2023-03-07T17:45:30.469Z,5.94
2023-03-07T17:47:57.396Z,5.82
2023-03-07T17:50:24.533Z,5.68
2023-03-07T17:52:52.803Z,5.66
2023-03-07T17:55:20.297Z,5.61
2023-03-07T17:57:46.754Z,5.53
2023-03-07T18:00:14.344Z,5.44
2023-03-07T18:02:45.026Z,5.38
2023-03-07T18:05:13.125Z,5.27
2023-03-07T18:07:41.332Z,5.06
2023-03-07T18:10:09.161Z,4.97
2023-03-07T18:12:39.037Z,5.10
2023-03-07T18:15:13.503Z,5.03
2023-03-07T18:17:47.895Z,4.85
2023-03-07T18:20:17.725Z,4.63
2023-03-07T18:22:44.266Z,4.72
2023-03-07T18:25:12.999Z,4.70
2023-03-07T18:27:39.509Z,4.56
2023-03-07T18:30:12.215Z,4.55
2023-03-07T18:32:38.801Z,4.35
2023-03-07T18:35:05.944Z,4.35
2023-03-07T18:37:35.758Z,4.34
2023-03-07T18:40:05.935Z,4.27
2023-03-07T18:42:35.887Z,4.29
2023-03-07T18:45:06.177Z,4.25
2023-03-07T18:47:35.679Z,4.20
2023-03-07T18:50:05.693Z,4.18
2023-03-07T18:52:35.282Z,4.09
2023-03-07T18:55:05.459Z,3.91
2023-03-07T18:57:35.048Z,4.06
2023-03-07T19:00:04.199Z,3.92
2023-03-07T19:02:32.868Z,3.87
2023-03-07T19:05:05.261Z,3.65
2023-03-07T19:07:41.149Z,3.68
2023-03-07T19:10:11.673Z,3.45
2023-03-07T19:12:39.055Z,3.33
2023-03-07T19:15:06.504Z,3.19
2023-03-07T19:17:40.622Z,3.32
2023-03-07T19:20:08.157Z,3.36
2023-03-07T19:22:37.936Z,3.34
2023-03-07T19:25:05.392Z,3.15
2023-03-07T19:27:34.731Z,3.14
2023-03-07T19:30:04.128Z,2.91
2023-03-07T19:32:30.647Z,3.06
2023-03-07T19:34:57.194Z,3.11
2023-03-07T19:37:23.996Z,3.01
2023-03-07T19:39:53.819Z,2.94
2023-03-07T19:42:21.652Z,2.68
2023-03-07T19:44:48.151Z,2.37
2023-03-07T19:47:14.673Z,2.07
2023-03-07T19:49:41.108Z,2.10
2023-03-07T19:52:07.654Z,2.14
2023-03-07T19:54:34.247Z,2.04
2023-03-07T19:57:00.724Z,2.09
2023-03-07T19:59:27.197Z,1.86
2023-03-07T20:01:53.696Z,1.88
2023-03-07T20:04:20.177Z,1.88
2023-03-07T20:06:46.747Z,1.86
2023-03-07T20:09:14.045Z,1.74
2023-03-07T20:11:43.283Z,1.73
2023-03-07T20:14:11.491Z,1.62
2023-03-07T20:16:38.191Z,1.58
2023-03-07T20:19:07.070Z,1.68
2023-03-07T20:21:36.822Z,1.59
2023-03-07T20:24:07.416Z,1.69
2023-03-07T20:26:36.373Z,1.75
2023-03-07T20:29:07.780Z,1.66
2023-03-07T20:31:34.666Z,1.73
2023-03-07T20:34:04.401Z,1.69
2023-03-07T20:36:36.679Z,1.82
2023-03-07T20:39:10.053Z,1.98
2023-03-07T20:41:39.361Z,1.79
2023-03-07T20:44:07.772Z,1.80
2023-03-07T20:46:35.722Z,1.69
2023-03-07T20:49:07.518Z,1.70
2023-03-07T20:51:36.944Z,1.71
2023-03-07T20:54:14.627Z,1.66
2023-03-07T20:56:41.888Z,1.77
2023-03-07T20:59:12.010Z,1.80
2023-03-07T21:01:38.949Z,1.76
2023-03-07T21:04:11.677Z,1.70
2023-03-07T21:06:41.170Z,1.71
2023-03-07T21:09:10.184Z,1.63
2023-03-07T21:11:38.853Z,1.71
2023-03-07T21:14:05.548Z,1.65
2023-03-07T21:16:34.185Z,1.62
2023-03-07T21:19:06.017Z,1.59
2023-03-07T21:21:36.559Z,1.85
2023-03-07T21:24:07.003Z,2.01
2023-03-07T21:26:36.781Z,2.09
2023-03-07T21:29:09.012Z,2.12
2023-03-07T21:31:36.802Z,2.15
2023-03-07T21:34:08.591Z,2.31
2023-03-07T21:36:40.687Z,2.09
2023-03-07T21:39:09.719Z,2.22
2023-03-07T21:41:36.575Z,2.08
2023-03-07T21:44:06.202Z,2.20
2023-03-07T21:46:36.997Z,2.14
2023-03-07T21:49:07.506Z,2.18
2023-03-07T21:51:37.430Z,2.11
2023-03-07T21:54:08.636Z,1.97
2023-03-07T21:56:37.974Z,1.90
2023-03-07T21:59:08.231Z,1.69
2023-03-07T22:01:37.604Z,1.86
2023-03-07T22:04:07.817Z,1.89
2023-03-07T22:06:36.850Z,1.92
2023-03-07T22:09:03.456Z,1.91
2023-03-07T22:11:30.796Z,1.94
2023-03-07T22:13:57.281Z,1.91
2023-03-07T22:16:24.187Z,1.75
2023-03-07T22:18:57.909Z,1.89
2023-03-07T22:21:27.841Z,2.04
2023-03-07T22:24:00.625Z,1.97
2023-03-07T22:26:28.878Z,1.91
2023-03-07T22:29:07.348Z,1.99
2023-03-07T22:31:33.895Z,2.12
2023-03-07T22:34:00.572Z,2.11
2023-03-07T22:36:27.442Z,2.09
2023-03-07T22:38:55.667Z,2.16
2023-03-07T22:41:24.233Z,2.13
2023-03-07T22:43:52.603Z,2.23
2023-03-07T22:46:19.930Z,2.22
2023-03-07T22:48:46.901Z,2.18
2023-03-07T22:51:20.831Z,2.32
2023-03-07T22:53:48.111Z,2.39
2023-03-07T22:56:26.643Z,2.35
2023-03-07T22:58:56.445Z,2.53
2023-03-07T23:01:27.798Z,2.38
2023-03-07T23:03:55.830Z,2.33
2023-03-07T23:06:24.218Z,2.43
2023-03-07T23:08:52.768Z,2.26
2023-03-07T23:11:21.616Z,2.40
2023-03-07T23:13:48.126Z,2.42
2023-03-07T23:16:17.776Z,2.54
2023-03-07T23:18:45.431Z,2.56
2023-03-07T23:21:15.269Z,2.79
2023-03-07T23:23:42.118Z,2.85
2023-03-07T23:26:08.981Z,2.77
2023-03-07T23:28:35.653Z,2.91
2023-03-07T23:31:02.189Z,2.83
2023-03-07T23:33:28.715Z,2.77
2023-03-07T23:35:59.264Z,2.95
2023-03-07T23:38:25.735Z,2.90
2023-03-07T23:40:52.209Z,2.90
2023-03-07T23:43:18.636Z,3.06
2023-03-07T23:45:45.133Z,3.20
2023-03-07T23:48:11.565Z,3.08
2023-03-07T23:50:41.080Z,3.06
2023-03-07T23:53:07.604Z,3.02
2023-03-07T23:55:34.085Z,3.06
2023-03-07T23:58:00.557Z,2.96
